Terminal Aerodrome Forecast
Issued by NWS Cleveland, OH

Home | Current Version | Previous Version | Text Only | Print | Product List | Glossary Off
Versions: 1 2 3 4 5 6 7 8 9 10 11 12 13 14 15 16 17 18 19 20

000
FTUS41 KCLE 232330
TAFCAK
TAF
KCAK 232330Z 2400/2424 17012KT P6SM BKN060 OVC150
     FM240400 14010KT 6SM -RA OVC035
      TEMPO 2404/2408 5SM -SHRA BKN025
     FM240800 12010KT 3SM -SHRA OVC025
     FM241600 14012G18KT 3SM -SHRA OVC012=

USA.gov is the U.S. government's official web portal to all federal, state and local government web resources and services.